地図

経路データ

SID SEASON NUMBER BASIN SUBBASIN NAME ISO_TIME NATURE LAT LON WMO_WIND WMO_PRES WMO_AGENCY TRACK_TYPE DIST2LAND LANDFALL IFLAG USA_AGENCY USA_ATCF_ID USA_LAT USA_LON USA_RECORD USA_STATUS USA_WIND USA_PRES USA_SSHS USA_R34_NE USA_R34_SE USA_R34_SW USA_R34_NW USA_R50_NE USA_R50_SE USA_R50_SW USA_R50_NW USA_R64_NE USA_R64_SE USA_R64_SW USA_R64_NW USA_POCI USA_ROCI USA_RMW USA_EYE TOKYO_LAT TOKYO_LON TOKYO_GRADE TOKYO_WIND TOKYO_PRES TOKYO_R50_DIR TOKYO_R50_LONG TOKYO_R50_SHORT TOKYO_R30_DIR TOKYO_R30_LONG TOKYO_R30_SHORT TOKYO_LAND CMA_LAT CMA_LON CMA_CAT CMA_WIND CMA_PRES HKO_LAT HKO_LON HKO_CAT HKO_WIND HKO_PRES NEWDELHI_LAT NEWDELHI_LON NEWDELHI_GRADE NEWDELHI_WIND NEWDELHI_PRES NEWDELHI_CI NEWDELHI_DP NEWDELHI_POCI REUNION_LAT REUNION_LON REUNION_TYPE REUNION_WIND REUNION_PRES REUNION_TNUM REUNION_CI REUNION_RMW REUNION_R34_NE REUNION_R34_SE REUNION_R34_SW REUNION_R34_NW REUNION_R50_NE REUNION_R50_SE REUNION_R50_SW REUNION_R50_NW REUNION_R64_NE REUNION_R64_SE REUNION_R64_SW REUNION_R64_NW BOM_LAT BOM_LON BOM_TYPE BOM_WIND BOM_PRES BOM_TNUM BOM_CI BOM_RMW BOM_R34_NE BOM_R34_SE BOM_R34_SW BOM_R34_NW BOM_R50_NE BOM_R50_SE BOM_R50_SW BOM_R50_NW BOM_R64_NE BOM_R64_SE BOM_R64_SW BOM_R64_NW BOM_ROCI BOM_POCI BOM_EYE BOM_POS_METHOD BOM_PRES_METHOD NADI_LAT NADI_LON NADI_CAT NADI_WIND NADI_PRES WELLINGTON_LAT WELLINGTON_LON WELLINGTON_WIND WELLINGTON_PRES DS824_LAT DS824_LON DS824_STAGE DS824_WIND DS824_PRES TD9636_LAT TD9636_LON TD9636_STAGE TD9636_WIND TD9636_PRES TD9635_LAT TD9635_LON TD9635_WIND TD9635_PRES TD9635_ROCI NEUMANN_LAT NEUMANN_LON NEUMANN_CLASS NEUMANN_WIND NEUMANN_PRES MLC_LAT MLC_LON MLC_CLASS MLC_WIND MLC_PRES USA_GUST BOM_GUST BOM_GUST_PER REUNION_GUST REUNION_GUST_PER USA_SEAHGT USA_SEARAD_NE USA_SEARAD_SE USA_SEARAD_SW USA_SEARAD_NW STORM_SPEED STORM_DIR
1940259N17087 1940 65 NI BB NOT_NAMED 1940-09-15 00:00:00 TS 16.6000 86.7000 main 330 330 _________O____ -1 16.6000 86.7000 TC 30 0 0
1940259N17087 1940 65 NI BB NOT_NAMED 1940-09-15 03:00:00 TS 16.6000 86.7000 main 330 330 _________PO___ -1 16.6000 86.7000 TC 30 16.6000 86.7000 1 0 0
1940259N17087 1940 65 NI BB NOT_NAMED 1940-09-15 06:00:00 TS 16.6045 86.6832 main 330 330 _________OP___ -1 16.6000 86.7000 TC 30 16.6112 86.6580 1 0 0
1940259N17087 1940 65 NI BB NOT_NAMED 1940-09-15 09:00:00 TS 16.6077 86.6712 main 330 330 _________PP___ -1 16.6000 86.7000 TC 30 16.6179 86.6328 1 0 0
1940259N17087 1940 65 NI BB NOT_NAMED 1940-09-15 12:00:00 TS 16.6078 86.6706 main 330 330 _________OP___ -1 16.6000 86.7000 TC 30 16.6157 86.6412 1 0 0
1940259N17087 1940 65 NI BB NOT_NAMED 1940-09-15 15:00:00 TS 16.6000 86.7000 main 330 330 _________PO___ -1 16.6000 86.7000 TC 30 16.6000 86.7000 1 1 106
1940259N17087 1940 65 NI BB NOT_NAMED 1940-09-15 18:00:00 TS 16.5854 86.7546 main 338 338 _________OP___ -1 16.6000 86.7000 TC 30 16.5708 86.8092 1 1 106
1940259N17087 1940 65 NI BB NOT_NAMED 1940-09-15 21:00:00 TS 16.5617 86.8382 main 338 338 _________PP___ -1 16.5773 86.7749 TC 30 16.5461 86.9016 1 0 107
1940259N17087 1940 65 NI BB NOT_NAMED 1940-09-16 00:00:00 TS 16.5742 86.7966 main 338 307 _________OP___ -1 16.6000 86.7000 TC 30 16.5484 86.8932 1 3 288
1940259N17087 1940 65 NI BB NOT_NAMED 1940-09-16 03:00:00 TS 16.6599 86.5137 main 307 261 _________PO___ -1 16.7197 86.3274 TC 30 16.6000 86.7000 1 8 286
1940259N17087 1940 65 NI BB NOT_NAMED 1940-09-16 06:00:00 TS 16.8109 85.9597 main 261 193 _________OP___ -1 16.9000 85.7000 TC 30 16.7218 86.2195 1 13 285
1940259N17087 1940 65 NI BB NOT_NAMED 1940-09-16 09:00:00 TS 16.9923 85.2166 main 186 123 _________PP___ -1 17.0930 84.8801 TC 30 16.8917 85.5530 1 15 284
1940259N17087 1940 65 NI BB NOT_NAMED 1940-09-16 12:00:00 TS 17.1953 84.3925 main 123 54 _________OP___ -1 17.3000 84.0000 TC 30 17.0905 84.7849 1 16 285
1940259N17087 1940 65 NI BB NOT_NAMED 1940-09-16 15:00:00 TS 17.3998 83.6349 main 46 0 _________PO___ -1 17.4996 83.2698 TC 30 17.3000 84.0000 1 14 286
1940259N17087 1940 65 NI BB NOT_NAMED 1940-09-16 18:00:00 TS 17.5982 82.9584 main 0 0 _________OP___ -1 17.7000 82.6000 TC 30 17.4964 83.3168 1 13 287
1940259N17087 1940 65 NI BB NOT_NAMED 1940-09-16 21:00:00 TS 17.7996 82.2849 main 0 0 _________PP___ -1 17.8998 81.9349 TC 30 17.6994 82.6349 1 13 288
1940259N17087 1940 65 NI BB NOT_NAMED 1940-09-17 00:00:00 TS 18.0013 81.6302 main 0 0 _________OP___ -1 18.1000 81.3000 TC 30 17.9027 81.9605 1 13 288
1940259N17087 1940 65 NI BB NOT_NAMED 1940-09-17 03:00:00 TS 18.2036 81.0000 main 0 0 _________PO___ -1 18.3072 80.6999 TC 30 18.1000 81.3000 1 13 288
1940259N17087 1940 65 NI BB NOT_NAMED 1940-09-17 06:00:00 TS 18.3909 80.3680 main 0 0 _________OP___ -1 18.5000 80.1000 TC 30 18.2818 80.6360 1 13 286
1940259N17087 1940 65 NI BB NOT_NAMED 1940-09-17 09:00:00 TS 18.5574 79.7123 main 0 0 _________PP___ -1 18.6576 79.4349 TC 30 18.4572 79.9896 1 13 285
1940259N17087 1940 65 NI BB NOT_NAMED 1940-09-17 12:00:00 TS 18.7144 79.0867 main 0 0 _________OP___ -1 18.8000 78.8000 TC 30 18.6289 79.3735 1 12 286
1940259N17087 1940 65 NI BB NOT_NAMED 1940-09-17 15:00:00 TS 18.8711 78.5349 main 0 0 _________PO___ -1 18.9422 78.2698 TC 30 18.8000 78.8000 1 11 288
1940259N17087 1940 65 NI BB NOT_NAMED 1940-09-17 18:00:00 TS 19.0352 78.0246 main 0 0 _________OP___ -1 19.1000 77.8000 TC 30 18.9704 78.2491 1 10 290
1940259N17087 1940 65 NI AS NOT_NAMED 1940-09-17 21:00:00 TS 19.2172 77.5324 main 0 0 _________PP___ -1 19.2925 77.3200 TC 30 19.1420 77.7448 1 10 293
1940259N17087 1940 65 NI AS NOT_NAMED 1940-09-18 00:00:00 TS 19.4088 77.0965 main 0 0 _________OP___ -1 19.5000 76.9000 TC 30 19.3176 77.2930 1 8 297
1940259N17087 1940 65 NI AS NOT_NAMED 1940-09-18 03:00:00 TS 19.5999 76.7349 main 0 0 _________PO___ -1 19.6999 76.5699 TC 30 19.5000 76.9000 1 7 302
1940259N17087 1940 65 NI AS NOT_NAMED 1940-09-18 06:00:00 TS 19.7941 76.4295 main 0 0 _________OP___ -1 19.9000 76.3000 TC 30 19.6881 76.5590 1 7 305
1940259N17087 1940 65 NI AS NOT_NAMED 1940-09-18 09:00:00 TS 19.9884 76.1547 main 0 0 _________PP___ -1 20.0925 76.0349 TC 30 19.8843 76.2745 1 6 310
1940259N17087 1940 65 NI AS NOT_NAMED 1940-09-18 12:00:00 TS 20.1941 75.9139 main 0 0 _________OP___ -1 20.3000 75.8000 TC 30 20.0883 76.0278 1 6 316
1940259N17087 1940 65 NI AS NOT_NAMED 1940-09-18 15:00:00 TS 20.4250 75.7000 main 0 0 _________PO___ -1 20.5499 75.5999 TC 30 20.3000 75.8000 1 6 320
1940259N17087 1940 65 NI AS NOT_NAMED 1940-09-18 18:00:00 TS 20.6689 75.4823 main 0 0 _________OP___ -1 20.8000 75.4000 TC 30 20.5379 75.5646 1 6 318
1940259N17087 1940 65 NI AS NOT_NAMED 1940-09-18 21:00:00 TS 20.8973 75.2500 main 0 0 _________PP___ -1 21.0150 75.1575 TC 30 20.7797 75.3425 1 6 315
1940259N17087 1940 65 NI AS NOT_NAMED 1940-09-19 00:00:00 TS 21.1033 75.0120 main 0 0 _________OP___ -1 21.2000 74.9000 TC 30 21.0067 75.1241 1 6 311
1940259N17087 1940 65 NI AS NOT_NAMED 1940-09-19 03:00:00 TS 21.2862 74.7750 main 0 0 _________PO___ -1 21.3725 74.6500 TC 30 21.2000 74.9000 1 6 306
1940259N17087 1940 65 NI AS NOT_NAMED 1940-09-19 06:00:00 TS 21.4383 74.5226 main 0 0 _________OP___ -1 21.5000 74.4000 TC 30 21.3766 74.6451 1 5 299
1940259N17087 1940 65 NI AS NOT_NAMED 1940-09-19 09:00:00 TS 21.5500 74.2639 main 0 0 _________PP___ -1 21.5875 74.1425 TC 30 21.5126 74.3853 1 5 289
1940259N17087 1940 65 NI AS NOT_NAMED 1940-09-19 12:00:00 TS 21.5961 74.0164 main 0 0 _________OP___ -1 21.6000 73.9000 TC 30 21.5922 74.1327 1 4 272
1940259N17087 1940 65 NI AS NOT_NAMED 1940-09-19 15:00:00 TS 21.5687 73.7925 main 0 0 _________PO___ -1 21.5375 73.6850 TC 30 21.6000 73.9000 1 5 252
1940259N17087 1940 65 NI AS NOT_NAMED 1940-09-19 18:00:00 TS 21.4588 73.5524 main 0 0 _________OP___ -1 21.4000 73.5000 TC 30 21.5176 73.6049 1 5 239
1940259N17087 1940 65 NI AS NOT_NAMED 1940-09-19 21:00:00 TS 21.2947 73.3104 main 0 0 _________PP___ -1 21.2224 73.2747 TC 30 21.3670 73.3460 1 5 222
1940259N17087 1940 65 NI AS NOT_NAMED 1940-09-20 00:00:00 TS 21.0914 73.1946 main 0 0 _________OP___ -1 21.0000 73.2000 TC 30 21.1829 73.1893 1 4 183
1940259N17087 1940 65 NI AS NOT_NAMED 1940-09-20 03:00:00 TS 20.8599 73.2977 main 0 0 _________PO___ -1 20.7198 73.3954 TC 30 21.0000 73.2000 1 6 137
1940259N17087 1940 65 NI AS NOT_NAMED 1940-09-20 06:00:00 TS 20.6497 73.6333 main 0 0 _________OP___ -1 20.5000 73.8000 TC 30 20.7995 73.4666 1 8 114
1940259N17087 1940 65 NI AS NOT_NAMED 1940-09-20 09:00:00 TS 20.5208 74.1189 main 0 0 _________PP___ -1 20.4254 74.3425 TC 30 20.6162 73.8953 1 10 99
1940259N17087 1940 65 NI AS NOT_NAMED 1940-09-20 12:00:00 TS 20.4998 74.6505 main 0 0 _________OP___ -1 20.5000 74.9000 TC 30 20.4997 74.4011 1 9 85
1940259N17087 1940 65 NI AS NOT_NAMED 1940-09-20 15:00:00 TS 20.5986 75.0900 main 0 0 _________PO___ -1 20.6972 75.2800 TC 30 20.5000 74.9000 1 8 65
1940259N17087 1940 65 NI AS NOT_NAMED 1940-09-20 18:00:00 TS 20.8405 75.4192 main 0 0 _________OP___ -1 21.0000 75.6000 TC 30 20.6809 75.2385 1 8 47
1940259N17087 1940 65 NI AS NOT_NAMED 1940-09-20 21:00:00 TS 21.1604 75.7411 main 0 0 _________PP___ -1 21.3422 75.9202 TC 30 20.9786 75.5620 1 9 43
1940259N17087 1940 65 NI AS NOT_NAMED 1940-09-21 00:00:00 TS 21.5185 76.1023 main 0 0 _________OP___ -1 21.7000 76.3000 TC 30 21.3370 75.9046 1 10 48
1940259N17087 1940 65 NI AS NOT_NAMED 1940-09-21 03:00:00 TS 21.8575 76.5600 main 0 0 _________PO___ -1 22.0151 76.8200 TC 30 21.7000 76.3000 1 11 55
1940259N17087 1940 65 NI AS NOT_NAMED 1940-09-21 06:00:00 TS 22.1534 77.0940 main 0 0 _________OP___ -1 22.3000 77.4000 TC 30 22.0067 76.7880 1 12 60
1940259N17087 1940 65 NI AS NOT_NAMED 1940-09-21 09:00:00 TS 22.4375 77.6410 main 0 0 _________PP___ -1 22.5723 77.9501 TC 30 22.3026 77.3318 1 12 63
1940259N17087 1940 65 NI BB NOT_NAMED 1940-09-21 12:00:00 TS 22.6861 78.2049 main 0 0 _________OP___ -1 22.8000 78.5000 TC 30 22.5722 77.9098 1 11 67
1940259N17087 1940 65 NI BB NOT_NAMED 1940-09-21 15:00:00 TS 22.8861 78.7714 main 0 0 _________PO___ -1 22.9722 79.0427 TC 30 22.8000 78.5000 1 11 71
1940259N17087 1940 65 NI BB NOT_NAMED 1940-09-21 18:00:00 TS 23.0290 79.3052 main 0 0 _________OP___ -1 23.1000 79.6000 TC 30 22.9758 79.0840 1 10 76
1940259N17087 1940 65 NI BB NOT_NAMED 1940-09-21 21:00:00 TS 23.1474 79.8721 main 0 0 _________PP___ -1 23.2055 80.1898 TC 30 23.1086 79.6602 1 10 78
1940259N17087 1940 65 NI BB NOT_NAMED 1940-09-22 00:00:00 TS 23.2414 80.4209 main 0 0 _________OP___ -1 23.3000 80.8000 TC 30 23.2122 80.2313 1 9 80
1940259N17087 1940 65 NI BB NOT_NAMED 1940-09-22 03:00:00 NR 23.3000 80.8000 main 0 __________O___ -1 TC 23.3000 80.8000 1 7 80

IBTrACS Databaseについて

本データベースは、米国NOAAが公開する1842年以降の世界の熱帯低気圧のベストトラックデータアーカイブInternational Best Track Archive for Climate Stewardship (IBTrACS)を、ウェブで閲覧しやすい形式に変換したものです。

最終更新日:2021-10-27